Time;durP1;ratioP1;P1;durP2;ratioP2;P2;SDS_P1;SDS_P2;PMS_P1;PMS_P2;Temp;Humidity;BMP_temperature;BMP_pressure;BME280_temperature;BME280_humidity;BME280_pressure;Samples;Min_cycle;Max_cycle;Signal;HPM_P1;HPM_P2
2022/08/05 00:01:42;;;;;;;2.92;2.72;;;25.70;45.30;;;;;;625670;230;26521;-68
2022/08/05 00:04:10;;;;;;;2.25;2.15;;;25.70;45.40;;;;;;625561;230;26623;-68
2022/08/05 00:06:38;;;;;;;1.92;1.83;;;25.60;45.30;;;;;;625631;230;26779;-68
2022/08/05 00:09:05;;;;;;;1.98;1.87;;;25.70;45.50;;;;;;625665;229;26541;-67
2022/08/05 00:11:32;;;;;;;1.80;1.70;;;25.60;45.50;;;;;;625608;230;26816;-67
2022/08/05 00:14:00;;;;;;;3.70;2.80;;;25.50;45.50;;;;;;626149;228;26585;-67
2022/08/05 00:16:28;;;;;;;1.92;1.83;;;25.40;45.80;;;;;;627165;229;26546;-67
2022/08/05 00:18:55;;;;;;;1.58;1.48;;;25.40;45.80;;;;;;626734;229;26539;-68
2022/08/05 00:21:22;;;;;;;2.00;1.90;;;25.30;46.00;;;;;;626467;230;26541;-68
2022/08/05 00:23:49;;;;;;;1.85;1.75;;;25.30;46.00;;;;;;626376;230;26819;-68
2022/08/05 00:26:18;;;;;;;1.62;1.52;;;25.30;46.30;;;;;;626242;230;26616;-68
2022/08/05 00:28:44;;;;;;;2.00;1.90;;;25.20;46.40;;;;;;626175;230;26788;-67
2022/08/05 00:31:11;;;;;;;1.98;1.87;;;25.10;46.60;;;;;;626180;230;26579;-67
2022/08/05 00:33:38;;;;;;;1.75;1.65;;;25.10;46.70;;;;;;625968;229;27206;-63
2022/08/05 00:36:05;;;;;;;1.95;1.85;;;25.10;46.90;;;;;;625870;230;26541;-64
2022/08/05 00:38:32;;;;;;;2.20;2.10;;;25.00;46.80;;;;;;625944;230;26547;-64
2022/08/05 00:41:00;;;;;;;2.00;1.90;;;25.00;47.00;;;;;;625907;229;26571;-64
2022/08/05 00:43:29;;;;;;;2.17;2.08;;;24.90;47.10;;;;;;625940;230;26558;-64
2022/08/05 00:45:56;;;;;;;1.90;1.80;;;24.90;47.10;;;;;;625770;230;26577;-64
2022/08/05 00:48:24;;;;;;;2.00;1.90;;;24.80;47.20;;;;;;625934;229;26528;-64
2022/08/05 00:50:52;;;;;;;2.10;2.00;;;24.70;47.50;;;;;;625714;230;26550;-63
2022/08/05 00:53:19;;;;;;;2.15;2.03;;;24.70;47.50;;;;;;625592;230;26667;-63
2022/08/05 00:55:46;;;;;;;2.20;2.10;;;24.70;47.60;;;;;;625537;230;26546;-63
2022/08/05 00:58:15;;;;;;;2.00;1.90;;;24.70;47.70;;;;;;625578;230;26803;-63
2022/08/05 01:00:40;;;;;;;2.00;1.90;;;24.70;47.70;;;;;;625700;230;26580;-63
2022/08/05 01:03:09;;;;;;;2.60;2.40;;;24.60;47.70;;;;;;625754;224;26834;-63
2022/08/05 01:05:35;;;;;;;3.00;2.80;;;24.50;47.80;;;;;;625464;230;26543;-63
2022/08/05 01:08:02;;;;;;;2.00;1.90;;;24.60;48.10;;;;;;625630;230;26764;-63
2022/08/05 01:10:30;;;;;;;2.37;2.28;;;24.70;48.40;;;;;;625592;230;26781;-63
2022/08/05 01:12:57;;;;;;;3.22;2.37;;;24.70;48.00;;;;;;625240;230;26994;-63
2022/08/05 01:15:25;;;;;;;2.62;2.42;;;24.60;48.10;;;;;;625270;230;26524;-63
2022/08/05 01:17:53;;;;;;;2.87;2.67;;;24.60;48.20;;;;;;625448;230;26777;-63
2022/08/05 01:20:40;;;;;;;2.90;2.70;;;24.50;48.10;;;;;;625502;230;26829;-63
2022/08/05 01:23:24;;;;;;;2.53;2.42;;;24.60;48.10;;;;;;624549;230;26781;-63
2022/08/05 01:25:58;;;;;;;2.90;2.70;;;24.50;48.30;;;;;;623001;228;26599;-66
2022/08/05 01:28:32;;;;;;;3.67;3.15;;;24.60;48.80;;;;;;626589;229;26576;-64
2022/08/05 01:31:19;;;;;;;3.50;3.30;;;24.70;49.50;;;;;;626404;229;26514;-64
2022/08/05 01:34:01;;;;;;;3.65;3.35;;;24.60;49.90;;;;;;623673;230;26639;-64
2022/08/05 01:36:28;;;;;;;3.80;3.45;;;24.50;50.30;;;;;;625773;230;26588;-64
2022/08/05 01:38:55;;;;;;;4.45;3.62;;;24.40;50.80;;;;;;625982;230;26827;-64
2022/08/05 01:41:22;;;;;;;4.30;3.78;;;24.30;51.20;;;;;;626188;230;26610;-64
2022/08/05 01:43:50;;;;;;;4.25;3.85;;;24.20;51.40;;;;;;626166;230;26773;-64
2022/08/05 01:46:17;;;;;;;4.40;4.03;;;24.20;51.70;;;;;;625800;230;26541;-64
2022/08/05 01:48:45;;;;;;;5.05;4.10;;;24.00;52.00;;;;;;626147;230;26505;-64
2022/08/05 01:51:13;;;;;;;4.53;4.10;;;24.00;52.60;;;;;;626212;230;26514;-64
2022/08/05 01:53:40;;;;;;;4.00;3.70;;;23.90;53.20;;;;;;626185;230;26794;-64
2022/08/05 01:56:07;;;;;;;4.60;4.20;;;23.80;53.80;;;;;;626108;230;26514;-64
2022/08/05 01:58:34;;;;;;;4.53;4.12;;;23.70;54.30;;;;;;626148;230;26981;-64
2022/08/05 02:01:01;;;;;;;4.32;3.70;;;23.60;54.50;;;;;;626188;230;26512;-64
2022/08/05 02:03:36;;;;;;;4.28;3.90;;;23.50;54.80;;;;;;625897;230;26801;-64
2022/08/05 02:06:04;;;;;;;6.72;4.12;;;23.40;55.00;;;;;;625872;230;27041;-64
2022/08/05 02:08:32;;;;;;;4.78;3.87;;;23.30;55.30;;;;;;625580;230;26787;-65
2022/08/05 02:11:03;;;;;;;4.50;3.90;;;23.20;55.90;;;;;;625593;230;26610;-65
2022/08/05 02:13:34;;;;;;;4.20;3.85;;;23.20;55.60;;;;;;625422;230;26839;-64
2022/08/05 02:16:03;;;;;;;7.10;3.92;;;23.20;56.20;;;;;;625399;230;26587;-65
2022/08/05 02:18:32;;;;;;;4.40;4.00;;;23.10;56.30;;;;;;625584;230;26570;-65
2022/08/05 02:21:01;;;;;;;4.00;3.70;;;23.00;56.80;;;;;;624988;230;26621;-65
2022/08/05 02:23:27;;;;;;;4.15;3.60;;;23.00;57.00;;;;;;624999;230;26930;-65
2022/08/05 02:25:54;;;;;;;4.03;3.70;;;23.00;57.30;;;;;;625374;230;26605;-65
2022/08/05 02:28:23;;;;;;;5.72;4.05;;;23.00;57.30;;;;;;625467;230;26782;-64
2022/08/05 02:30:49;;;;;;;4.20;3.80;;;23.00;57.60;;;;;;625494;230;26537;-64
2022/08/05 02:33:17;;;;;;;4.05;3.65;;;23.00;57.90;;;;;;625251;230;26565;-64
2022/08/05 02:35:46;;;;;;;4.57;3.70;;;22.90;57.50;;;;;;625562;230;26578;-65
2022/08/05 02:38:14;;;;;;;4.30;3.50;;;22.90;58.40;;;;;;626924;228;26562;-65
2022/08/05 02:40:42;;;;;;;4.62;3.60;;;22.90;58.50;;;;;;626885;229;26560;-65
2022/08/05 02:43:10;;;;;;;3.37;3.17;;;22.90;58.40;;;;;;626577;229;26540;-64
2022/08/05 02:45:37;;;;;;;3.80;3.28;;;22.90;58.70;;;;;;626277;230;26528;-65
2022/08/05 02:48:05;;;;;;;3.97;3.62;;;22.90;58.90;;;;;;626230;230;26570;-65
2022/08/05 02:50:32;;;;;;;4.45;3.35;;;22.90;59.00;;;;;;626171;230;26818;-64
2022/08/05 02:53:00;;;;;;;3.17;2.95;;;22.80;59.20;;;;;;626220;229;26593;-65
2022/08/05 02:55:27;;;;;;;4.45;3.50;;;22.70;59.10;;;;;;626101;230;26585;-65
2022/08/05 02:57:55;;;;;;;5.50;3.42;;;22.70;59.50;;;;;;625906;230;26530;-65
2022/08/05 03:00:22;;;;;;;4.43;3.12;;;22.70;59.60;;;;;;626151;230;26765;-64
2022/08/05 03:02:49;;;;;;;3.33;3.03;;;22.70;60.00;;;;;;626194;230;26773;-65
2022/08/05 03:05:16;;;;;;;4.78;3.00;;;22.70;60.40;;;;;;625962;230;26533;-65
2022/08/05 03:07:43;;;;;;;4.57;3.30;;;22.70;60.70;;;;;;625965;230;26727;-64
2022/08/05 03:10:11;;;;;;;5.82;3.47;;;22.70;61.00;;;;;;625881;230;26545;-65
2022/08/05 03:12:38;;;;;;;3.50;3.30;;;22.70;61.30;;;;;;625723;230;26751;-64
2022/08/05 03:15:06;;;;;;;5.07;3.40;;;22.70;61.20;;;;;;625676;230;26784;-65
2022/08/05 03:17:33;;;;;;;3.62;3.05;;;22.60;61.10;;;;;;625584;230;26591;-65
2022/08/05 03:20:01;;;;;;;3.83;3.10;;;22.60;61.10;;;;;;625582;230;26837;-64
2022/08/05 03:22:28;;;;;;;4.78;3.00;;;22.60;61.20;;;;;;625566;230;26600;-64
2022/08/05 03:24:55;;;;;;;3.90;3.30;;;22.60;61.40;;;;;;625624;230;26818;-64
2022/08/05 03:27:23;;;;;;;3.12;2.92;;;22.60;60.50;;;;;;625874;230;26574;-64
2022/08/05 03:29:51;;;;;;;3.60;3.00;;;22.60;61.20;;;;;;625787;230;26596;-64
2022/08/05 03:32:18;;;;;;;4.07;3.33;;;22.60;61.20;;;;;;625617;230;26825;-64
2022/08/05 03:34:46;;;;;;;3.15;2.95;;;22.60;62.80;;;;;;625620;230;26617;-64
2022/08/05 03:37:14;;;;;;;5.40;3.15;;;22.60;61.50;;;;;;625643;230;26539;-64
2022/08/05 03:39:56;;;;;;;3.47;2.72;;;22.60;61.60;;;;;;625630;230;26843;-64
2022/08/05 03:42:23;;;;;;;4.30;2.92;;;22.60;61.30;;;;;;625579;230;26560;-64
2022/08/05 03:44:50;;;;;;;4.22;3.03;;;22.60;62.50;;;;;;625677;230;27142;-64
2022/08/05 03:47:18;;;;;;;3.15;2.90;;;22.60;62.60;;;;;;625559;230;26614;-64
2022/08/05 03:49:45;;;;;;;3.47;3.17;;;22.60;61.90;;;;;;626904;228;27111;-64
2022/08/05 03:52:12;;;;;;;3.20;2.95;;;22.60;62.60;;;;;;626949;229;26573;-64
2022/08/05 03:54:53;;;;;;;5.60;2.72;;;22.60;62.30;;;;;;626276;229;26567;-64
2022/08/05 03:57:23;;;;;;;4.55;3.08;;;22.60;62.90;;;;;;626537;230;26537;-64
2022/08/05 03:59:49;;;;;;;2.83;2.62;;;22.60;63.10;;;;;;626099;230;26592;-64
2022/08/05 04:02:16;;;;;;;3.12;2.90;;;22.50;61.90;;;;;;625923;230;26828;-64
2022/08/05 04:04:43;;;;;;;3.33;2.55;;;22.50;64.40;;;;;;626132;230;26572;-64
2022/08/05 04:07:10;;;;;;;4.78;2.87;;;22.50;64.60;;;;;;626075;230;26575;-64
2022/08/05 04:09:38;;;;;;;5.93;3.42;;;22.50;62.80;;;;;;625862;224;26510;-64
2022/08/05 04:12:07;;;;;;;4.37;2.97;;;22.60;64.40;;;;;;625775;230;26522;-64
2022/08/05 04:14:34;;;;;;;3.40;3.08;;;22.50;64.30;;;;;;625897;230;26589;-64
2022/08/05 04:17:02;;;;;;;4.50;2.50;;;22.60;64.40;;;;;;625808;230;26763;-64
2022/08/05 04:19:29;;;;;;;3.58;3.03;;;22.60;63.50;;;;;;625958;230;26534;-64
2022/08/05 04:21:56;;;;;;;3.00;2.80;;;22.70;63.40;;;;;;625797;230;26755;-64
2022/08/05 04:24:23;;;;;;;3.30;3.00;;;22.70;63.90;;;;;;625858;230;26585;-64
2022/08/05 04:26:50;;;;;;;3.20;3.00;;;22.80;63.70;;;;;;625619;230;27074;-64
2022/08/05 04:29:18;;;;;;;3.15;2.92;;;22.80;64.70;;;;;;625629;230;26582;-64
2022/08/05 04:31:45;;;;;;;4.30;2.95;;;22.90;65.30;;;;;;625591;230;26603;-64
2022/08/05 04:34:13;;;;;;;3.85;3.05;;;23.00;64.70;;;;;;625630;230;27225;-64
2022/08/05 04:36:40;;;;;;;2.85;2.65;;;23.00;65.00;;;;;;625593;230;26581;-64
2022/08/05 04:39:07;;;;;;;3.22;2.87;;;23.10;65.40;;;;;;625596;230;26857;-64
2022/08/05 04:41:34;;;;;;;3.22;3.03;;;23.20;65.10;;;;;;625637;230;26596;-64
2022/08/05 04:44:02;;;;;;;3.28;2.65;;;23.30;64.90;;;;;;625614;230;26618;-64
2022/08/05 04:46:29;;;;;;;3.10;2.70;;;23.30;64.80;;;;;;625664;230;26543;-64
2022/08/05 04:48:57;;;;;;;2.78;2.58;;;23.50;64.40;;;;;;625662;230;26608;-63
2022/08/05 04:51:24;;;;;;;4.07;2.87;;;23.50;64.40;;;;;;625661;230;26538;-64
2022/08/05 04:53:52;;;;;;;3.42;3.15;;;23.60;64.40;;;;;;625553;230;26609;-64
2022/08/05 04:56:20;;;;;;;3.50;3.20;;;23.60;64.00;;;;;;625637;230;26619;-64
2022/08/05 04:58:48;;;;;;;3.58;3.00;;;23.70;63.80;;;;;;625638;230;26645;-64
2022/08/05 05:01:16;;;;;;;2.78;2.58;;;23.80;63.70;;;;;;626803;228;26579;-64
2022/08/05 05:03:43;;;;;;;2.95;2.75;;;23.70;63.50;;;;;;626921;229;26824;-64
2022/08/05 05:06:10;;;;;;;3.87;2.90;;;23.80;62.60;;;;;;626653;229;26532;-64
2022/08/05 05:08:37;;;;;;;6.78;3.20;;;23.80;62.70;;;;;;626514;230;26876;-64
2022/08/05 05:11:05;;;;;;;5.20;3.00;;;23.90;62.90;;;;;;626276;230;26591;-64
2022/08/05 05:13:32;;;;;;;6.15;2.87;;;23.90;63.30;;;;;;626230;230;26826;-64
2022/08/05 05:15:59;;;;;;;7.03;3.40;;;24.00;63.40;;;;;;626298;224;26588;-64
2022/08/05 05:18:26;;;;;;;6.50;3.17;;;24.00;63.00;;;;;;626100;229;26810;-64
2022/08/05 05:20:54;;;;;;;3.72;2.90;;;24.20;63.10;;;;;;625916;224;26545;-64
2022/08/05 05:23:21;;;;;;;4.50;2.97;;;24.20;63.20;;;;;;625905;229;26804;-64
2022/08/05 05:25:48;;;;;;;3.30;3.00;;;24.20;63.90;;;;;;625935;230;26538;-64
2022/08/05 05:28:15;;;;;;;3.35;3.10;;;24.20;62.70;;;;;;625921;229;26501;-64
2022/08/05 05:30:43;;;;;;;3.55;3.15;;;24.20;63.90;;;;;;625932;230;26538;-65
2022/08/05 05:33:11;;;;;;;4.35;3.25;;;24.40;64.00;;;;;;625921;230;26556;-65
2022/08/05 05:35:39;;;;;;;3.15;2.95;;;24.40;63.80;;;;;;625874;230;26579;-65
2022/08/05 05:38:07;;;;;;;3.40;3.20;;;24.40;64.30;;;;;;625498;230;26633;-65
2022/08/05 05:40:35;;;;;;;4.60;2.75;;;24.30;64.20;;;;;;625482;230;26729;-65
2022/08/05 05:43:02;;;;;;;4.78;3.15;;;24.30;64.20;;;;;;625577;230;26613;-65
2022/08/05 05:45:31;;;;;;;3.55;2.90;;;24.40;64.40;;;;;;625631;230;26571;-65
2022/08/05 05:47:59;;;;;;;2.97;2.78;;;24.50;64.10;;;;;;625562;229;26656;-65
2022/08/05 05:50:27;;;;;;;3.55;3.03;;;24.60;63.90;;;;;;625511;229;26594;-65
2022/08/05 05:52:55;;;;;;;3.20;2.90;;;24.70;63.60;;;;;;625538;224;26602;-65
2022/08/05 05:55:22;;;;;;;4.32;2.90;;;24.70;63.60;;;;;;625612;230;26596;-65
2022/08/05 05:57:49;;;;;;;4.35;3.42;;;24.70;63.30;;;;;;625643;230;26550;-65
2022/08/05 06:00:17;;;;;;;3.90;3.10;;;24.70;63.30;;;;;;625619;230;26819;-65
2022/08/05 06:02:45;;;;;;;3.20;3.00;;;24.70;63.30;;;;;;625864;230;26615;-65
2022/08/05 06:05:12;;;;;;;3.08;2.78;;;24.80;63.40;;;;;;625856;230;26571;-65
2022/08/05 06:07:39;;;;;;;4.57;3.20;;;24.80;63.20;;;;;;625938;230;26564;-66
2022/08/05 06:10:07;;;;;;;6.50;3.10;;;24.90;63.00;;;;;;625802;230;26805;-66
2022/08/05 06:12:34;;;;;;;3.30;3.10;;;25.00;62.50;;;;;;627909;224;26601;-65
2022/08/05 06:15:01;;;;;;;4.50;3.20;;;25.00;62.40;;;;;;628380;227;26828;-65
2022/08/05 06:17:29;;;;;;;3.17;2.95;;;25.10;62.00;;;;;;634840;222;26556;-65
2022/08/05 06:19:56;;;;;;;3.45;3.15;;;25.10;62.00;;;;;;636379;225;26817;-65
2022/08/05 06:22:23;;;;;;;4.43;3.12;;;25.00;62.10;;;;;;635983;226;26557;-65
2022/08/05 06:24:50;;;;;;;4.25;3.10;;;25.00;62.70;;;;;;625984;230;26613;-65
2022/08/05 06:27:18;;;;;;;6.90;3.10;;;25.00;63.40;;;;;;629452;226;26504;-65
2022/08/05 06:29:46;;;;;;;9.88;4.40;;;25.00;63.70;;;;;;630312;225;26585;-65
2022/08/05 06:32:14;;;;;;;2.83;2.58;;;24.90;64.00;;;;;;633387;226;26518;-65
2022/08/05 06:34:42;;;;;;;2.85;2.55;;;24.90;64.10;;;;;;625607;226;26596;-65
2022/08/05 06:37:09;;;;;;;3.22;2.50;;;24.70;64.90;;;;;;625257;230;26756;-65
2022/08/05 06:39:38;;;;;;;3.00;2.70;;;24.70;65.00;;;;;;625262;230;26502;-65
2022/08/05 06:42:03;;;;;;;3.03;2.72;;;24.90;65.50;;;;;;634646;225;26776;-65
2022/08/05 06:44:31;;;;;;;4.72;3.10;;;25.10;64.50;;;;;;627920;225;26537;-65
2022/08/05 06:46:58;;;;;;;3.87;2.92;;;25.50;63.50;;;;;;630255;225;26578;-65
2022/08/05 06:49:25;;;;;;;3.75;2.70;;;25.90;62.30;;;;;;629437;225;26554;-65
2022/08/05 06:51:52;;;;;;;3.35;2.47;;;26.10;61.60;;;;;;627987;226;26804;-65
2022/08/05 06:54:19;;;;;;;2.72;2.55;;;26.10;61.60;;;;;;631464;222;26607;-66
2022/08/05 06:56:47;;;;;;;3.17;2.65;;;25.70;62.40;;;;;;632878;225;27309;-65
2022/08/05 06:59:14;;;;;;;5.30;2.70;;;25.60;62.50;;;;;;629924;221;26569;-68
2022/08/05 07:01:43;;;;;;;5.00;2.80;;;25.60;63.20;;;;;;632642;225;26550;-67
2022/08/05 07:04:11;;;;;;;3.28;2.80;;;25.50;63.30;;;;;;626860;226;26785;-68
2022/08/05 07:06:38;;;;;;;3.33;2.90;;;25.50;63.30;;;;;;629638;226;26553;-65
2022/08/05 07:09:06;;;;;;;2.92;2.60;;;25.70;62.70;;;;;;632046;225;26591;-65
2022/08/05 07:11:33;;;;;;;2.80;2.60;;;25.60;62.50;;;;;;629073;225;26592;-65
2022/08/05 07:19:07;;;;;;;4.82;2.37;;;26.40;59.70;;;;;;629594;225;26834;-66
2022/08/05 07:21:34;;;;;;;3.45;2.60;;;26.40;59.60;;;;;;629316;226;26590;-66
2022/08/05 07:24:02;;;;;;;2.97;2.28;;;26.10;60.00;;;;;;628908;226;26852;-66
2022/08/05 07:26:29;;;;;;;2.75;2.47;;;26.10;60.60;;;;;;632953;225;26826;-66
2022/08/05 07:28:57;;;;;;;2.35;2.20;;;26.50;59.90;;;;;;631150;225;26627;-63
2022/08/05 07:31:24;;;;;;;3.08;2.30;;;26.50;59.80;;;;;;631369;225;26608;-63
2022/08/05 07:33:51;;;;;;;2.60;2.30;;;26.50;60.10;;;;;;629889;226;26828;-62
2022/08/05 07:36:18;;;;;;;3.85;2.58;;;26.40;60.10;;;;;;630394;225;26601;-63
2022/08/05 07:38:46;;;;;;;4.10;2.53;;;26.50;60.60;;;;;;626969;226;26807;-63
2022/08/05 07:41:16;;;;;;;3.92;2.62;;;26.30;60.20;;;;;;628359;225;26576;-64
2022/08/05 07:43:43;;;;;;;3.75;2.20;;;25.90;62.20;;;;;;625263;226;26553;-63
2022/08/05 07:46:11;;;;;;;4.70;2.67;;;25.80;62.70;;;;;;625274;230;26564;-62
2022/08/05 07:48:39;;;;;;;2.65;2.22;;;25.70;62.70;;;;;;634215;226;27410;-63
2022/08/05 07:51:06;;;;;;;2.65;2.20;;;25.70;62.60;;;;;;627919;227;26531;-63
2022/08/05 07:53:35;;;;;;;2.55;2.28;;;25.60;62.90;;;;;;635513;221;26628;-64
2022/08/05 07:56:00;;;;;;;2.45;2.30;;;25.50;63.80;;;;;;629650;225;26542;-63
2022/08/05 07:58:28;;;;;;;2.33;2.12;;;25.50;64.20;;;;;;624938;226;27531;-63
2022/08/05 08:00:55;;;;;;;2.72;2.25;;;25.30;64.20;;;;;;631319;226;26538;-63
2022/08/05 08:03:23;;;;;;;3.75;2.10;;;25.10;64.60;;;;;;635419;226;26842;-63
2022/08/05 08:05:51;;;;;;;2.47;2.37;;;25.00;64.90;;;;;;635389;226;26502;-63
2022/08/05 08:08:18;;;;;;;3.20;2.10;;;25.00;65.80;;;;;;626094;226;26531;-63
2022/08/05 08:10:47;;;;;;;6.60;2.60;;;24.90;65.70;;;;;;624675;230;26522;-63
2022/08/05 08:13:14;;;;;;;2.30;2.20;;;24.90;65.70;;;;;;624854;230;26815;-63
2022/08/05 08:15:41;;;;;;;4.55;2.30;;;25.00;67.00;;;;;;631932;225;26532;-63
2022/08/05 08:18:09;;;;;;;5.22;2.37;;;24.80;68.40;;;;;;628167;225;26814;-63
2022/08/05 08:20:36;;;;;;;2.90;2.50;;;24.80;68.40;;;;;;609647;236;27376;-63
2022/08/05 08:23:04;;;;;;;2.87;2.42;;;24.80;67.80;;;;;;631252;227;26585;-63
2022/08/05 08:25:31;;;;;;;2.47;2.28;;;24.80;67.60;;;;;;626900;226;26798;-63
2022/08/05 08:28:00;;;;;;;2.72;2.40;;;24.90;68.10;;;;;;607700;234;26540;-63
2022/08/05 08:30:25;;;;;;;3.00;2.30;;;25.10;67.00;;;;;;626519;227;26792;-63
2022/08/05 08:32:52;;;;;;;2.05;1.95;;;25.30;65.00;;;;;;625004;226;26610;-63
2022/08/05 08:35:20;;;;;;;2.40;2.20;;;25.40;63.60;;;;;;626044;228;26797;-64
2022/08/05 08:37:47;;;;;;;2.28;2.08;;;25.40;63.20;;;;;;626467;229;26533;-64
2022/08/05 08:40:14;;;;;;;2.28;2.17;;;25.40;62.60;;;;;;612999;233;27122;-64
2022/08/05 08:42:42;;;;;;;1.80;1.70;;;25.50;62.30;;;;;;613643;231;26580;-64
2022/08/05 08:45:10;;;;;;;2.22;2.08;;;25.40;62.50;;;;;;631183;226;26528;-63
2022/08/05 08:47:38;;;;;;;3.22;2.03;;;25.40;62.50;;;;;;625232;229;26541;-63
2022/08/05 08:50:06;;;;;;;2.22;1.95;;;25.20;62.70;;;;;;610232;234;26793;-63
2022/08/05 08:52:33;;;;;;;2.25;2.15;;;25.20;63.20;;;;;;614251;234;26598;-64
2022/08/05 08:55:02;;;;;;;3.53;2.00;;;25.30;63.00;;;;;;613158;233;26860;-64
2022/08/05 08:57:28;;;;;;;2.20;2.00;;;25.20;63.10;;;;;;634967;224;26579;-63
2022/08/05 08:59:55;;;;;;;4.53;1.95;;;25.10;63.80;;;;;;610585;234;26845;-64
2022/08/05 09:02:22;;;;;;;2.55;2.12;;;24.90;64.30;;;;;;603152;235;26584;-64
2022/08/05 09:04:49;;;;;;;2.22;1.85;;;24.80;63.60;;;;;;636024;226;27135;-63
2022/08/05 09:07:17;;;;;;;3.08;1.85;;;24.80;63.80;;;;;;631637;225;26510;-63
2022/08/05 09:09:44;;;;;;;1.95;1.85;;;24.70;64.40;;;;;;629851;225;26759;-63
2022/08/05 09:12:12;;;;;;;2.75;1.80;;;24.90;66.30;;;;;;629025;225;26545;-64
2022/08/05 09:14:40;;;;;;;2.65;2.00;;;25.00;66.50;;;;;;610590;234;26609;-63
2022/08/05 09:17:08;;;;;;;2.45;2.15;;;25.10;66.40;;;;;;615488;231;26636;-63
2022/08/05 09:19:36;;;;;;;2.62;1.77;;;25.10;66.70;;;;;;629291;225;26541;-64
2022/08/05 09:22:03;;;;;;;1.80;1.70;;;25.10;66.70;;;;;;629545;228;26578;-65
2022/08/05 09:24:30;;;;;;;2.08;1.87;;;25.10;66.60;;;;;;626177;225;26638;-65
2022/08/05 09:26:57;;;;;;;3.65;1.80;;;25.00;66.60;;;;;;633841;226;26750;-64
2022/08/05 09:29:31;;;;;;;4.47;1.90;;;25.30;66.20;;;;;;626286;226;26577;-64
2022/08/05 09:32:00;;;;;;;2.55;2.00;;;25.50;65.70;;;;;;629882;226;26874;-64
2022/08/05 09:34:28;;;;;;;6.93;2.70;;;26.10;64.10;;;;;;626460;226;26611;-66
2022/08/05 09:36:56;;;;;;;95.07;19.50;;;26.00;63.80;;;;;;627517;228;26557;-66
2022/08/05 09:39:24;;;;;;;104.90;23.85;;;25.90;62.90;;;;;;627685;228;26603;-64
2022/08/05 09:41:57;;;;;;;84.43;21.08;;;26.00;62.60;;;;;;627273;225;26543;-68
2022/08/05 09:44:40;;;;;;;90.00;20.33;;;26.00;62.60;;;;;;625374;230;26611;-65
2022/08/05 09:47:09;;;;;;;73.93;18.98;;;25.90;63.40;;;;;;606817;231;26613;-65
2022/08/05 09:49:40;;;;;;;67.35;18.33;;;26.00;62.90;;;;;;614500;234;26806;-65
2022/08/05 09:52:14;;;;;;;56.80;16.33;;;25.80;62.50;;;;;;628206;226;26573;-65
2022/08/05 09:54:42;;;;;;;48.67;15.20;;;25.70;62.90;;;;;;634961;225;26616;-64
2022/08/05 09:57:09;;;;;;;42.47;13.45;;;25.30;61.00;;;;;;625036;230;26838;-64
2022/08/05 09:59:36;;;;;;;33.83;10.77;;;25.20;62.50;;;;;;605147;234;26576;-64
2022/08/05 10:02:04;;;;;;;24.83;8.15;;;25.00;65.20;;;;;;612660;234;26631;-64
2022/08/05 10:04:38;;;;;;;15.75;5.10;;;24.90;65.00;;;;;;632831;226;26590;-64
2022/08/05 10:07:03;;;;;;;8.38;3.12;;;24.90;64.30;;;;;;625426;226;26549;-64
2022/08/05 10:09:31;;;;;;;4.72;2.83;;;24.90;65.10;;;;;;625326;228;26595;-64
2022/08/05 10:12:08;;;;;;;4.10;2.80;;;24.90;65.90;;;;;;625044;230;26824;-64
2022/08/05 10:14:36;;;;;;;2.72;2.42;;;25.00;66.60;;;;;;612565;234;26649;-64
2022/08/05 10:17:10;;;;;;;2.37;2.03;;;25.00;66.50;;;;;;633968;223;26639;-64
2022/08/05 10:19:37;;;;;;;3.37;2.03;;;25.10;65.60;;;;;;631181;225;26549;-64
2022/08/05 10:22:05;;;;;;;2.30;2.00;;;25.30;65.70;;;;;;624803;230;26606;-65
2022/08/05 10:24:32;;;;;;;4.22;2.22;;;25.50;66.30;;;;;;612638;234;26822;-65
2022/08/05 10:27:00;;;;;;;4.10;2.10;;;25.80;64.00;;;;;;631500;227;26630;-65
2022/08/05 10:29:31;;;;;;;1.90;1.80;;;25.70;63.80;;;;;;626056;225;26554;-65
2022/08/05 10:31:55;;;;;;;4.25;2.50;;;25.70;63.20;;;;;;612056;234;27567;-66
2022/08/05 10:34:22;;;;;;;2.97;2.05;;;25.60;64.30;;;;;;615041;231;26641;-66
2022/08/05 10:36:50;;;;;;;2.28;2.00;;;25.60;64.20;;;;;;633976;226;26788;-65
2022/08/05 10:39:17;;;;;;;1.55;1.40;;;25.50;63.30;;;;;;630461;226;26635;-64
2022/08/05 10:42:05;;;;;;;3.42;1.95;;;25.30;64.50;;;;;;625017;226;26827;-65
2022/08/05 10:44:33;;;;;;;2.83;1.73;;;25.20;68.50;;;;;;621738;227;26542;-65
2022/08/05 10:47:00;;;;;;;1.87;1.73;;;25.30;69.20;;;;;;606015;235;26568;-65
2022/08/05 10:49:28;;;;;;;1.83;1.48;;;25.20;69.10;;;;;;633421;226;26535;-65
2022/08/05 10:51:58;;;;;;;2.12;1.80;;;25.10;70.70;;;;;;625884;226;26580;-65
2022/08/05 10:54:25;;;;;;;2.12;1.87;;;24.90;71.70;;;;;;628822;227;26564;-66
2022/08/05 10:56:54;;;;;;;2.62;1.90;;;24.80;75.90;;;;;;609642;235;26594;-66
2022/08/05 10:59:25;;;;;;;2.25;1.90;;;24.80;75.60;;;;;;614919;233;26748;-65
2022/08/05 11:02:05;;;;;;;1.95;1.65;;;24.60;73.90;;;;;;613917;234;26619;-65
2022/08/05 11:04:33;;;;;;;2.00;1.90;;;24.70;76.50;;;;;;614655;233;26655;-65
2022/08/05 11:07:05;;;;;;;3.87;2.00;;;24.90;72.40;;;;;;624812;230;26600;-66
2022/08/05 11:09:38;;;;;;;1.90;1.80;;;24.90;72.40;;;;;;624955;230;26528;-65
2022/08/05 11:12:05;;;;;;;2.53;1.85;;;25.10;70.70;;;;;;612932;234;26598;-65
2022/08/05 11:14:37;;;;;;;2.70;2.25;;;25.30;72.20;;;;;;612583;234;26556;-66
2022/08/05 11:17:26;;;;;;;2.35;2.15;;;25.40;67.80;;;;;;635023;224;26906;-65
2022/08/05 11:19:54;;;;;;;2.33;2.05;;;25.40;75.70;;;;;;625158;227;26610;-66
2022/08/05 11:22:32;;;;;;;2.20;2.00;;;25.60;68.90;;;;;;624669;226;26767;-65
2022/08/05 11:25:11;;;;;;;4.15;2.12;;;25.70;67.00;;;;;;625139;229;26608;-65
2022/08/05 11:27:39;;;;;;;2.50;2.00;;;25.90;67.70;;;;;;609972;235;26563;-65
2022/08/05 11:30:06;;;;;;;3.37;2.10;;;26.00;61.70;;;;;;632964;227;27195;-66
2022/08/05 11:32:33;;;;;;;2.37;2.15;;;25.80;62.40;;;;;;624688;230;26799;-67
2022/08/05 11:35:01;;;;;;;1.80;1.70;;;25.70;61.80;;;;;;628561;227;26767;-65
2022/08/05 11:37:41;;;;;;;2.78;1.90;;;25.80;61.70;;;;;;626842;226;26585;-65
2022/08/05 11:40:09;;;;;;;2.20;1.62;;;26.00;62.90;;;;;;614253;234;26593;-65
2022/08/05 11:42:36;;;;;;;2.10;2.00;;;26.30;62.10;;;;;;612692;235;26852;-65
2022/08/05 11:45:04;;;;;;;3.05;1.98;;;26.70;62.60;;;;;;624660;230;26601;-65
2022/08/05 11:47:32;;;;;;;2.33;2.12;;;27.30;61.40;;;;;;609480;235;26556;-65
2022/08/05 11:49:59;;;;;;;2.28;2.08;;;27.30;61.40;;;;;;611853;233;26779;-65
2022/08/05 11:52:27;;;;;;;2.17;1.92;;;27.40;60.40;;;;;;613107;233;26620;-65
2022/08/05 11:54:54;;;;;;;2.22;1.80;;;27.60;59.70;;;;;;611850;234;26851;-65
2022/08/05 11:57:21;;;;;;;4.05;2.03;;;27.50;60.10;;;;;;621760;230;26601;-65
2022/08/05 11:59:48;;;;;;;3.20;2.28;;;27.50;59.70;;;;;;625862;227;26774;-65
2022/08/05 12:02:15;;;;;;;4.55;2.05;;;27.50;60.20;;;;;;624722;229;26603;-65
2022/08/05 12:04:44;;;;;;;4.85;2.45;;;27.70;59.50;;;;;;624665;227;26880;-65
2022/08/05 12:07:12;;;;;;;5.32;2.30;;;27.60;59.10;;;;;;624453;230;26594;-66
2022/08/05 12:09:40;;;;;;;2.53;2.20;;;27.60;59.60;;;;;;615953;229;26606;-66
2022/08/05 12:12:08;;;;;;;2.78;2.30;;;27.90;58.20;;;;;;629379;225;26606;-67
2022/08/05 12:14:43;;;;;;;3.17;2.08;;;27.90;58.20;;;;;;634783;225;26613;-66
2022/08/05 12:17:10;;;;;;;2.53;2.33;;;28.10;57.50;;;;;;634803;226;26827;-66
2022/08/05 12:19:49;;;;;;;3.37;2.08;;;28.40;58.10;;;;;;628219;226;26546;-66
2022/08/05 12:22:18;;;;;;;2.40;2.08;;;28.50;57.30;;;;;;627223;225;26762;-66
2022/08/05 12:24:45;;;;;;;4.35;2.45;;;28.70;57.10;;;;;;626718;225;26611;-65
2022/08/05 12:27:19;;;;;;;4.93;2.22;;;28.80;55.20;;;;;;627614;225;26591;-65
2022/08/05 12:29:46;;;;;;;2.33;2.05;;;29.20;54.20;;;;;;628537;226;26587;-65
2022/08/05 12:32:14;;;;;;;3.12;2.25;;;29.50;53.60;;;;;;630252;225;26603;-65
2022/08/05 12:34:42;;;;;;;1.98;1.87;;;29.50;53.30;;;;;;629415;222;27011;-65
2022/08/05 12:37:10;;;;;;;2.90;2.05;;;30.00;53.00;;;;;;629851;226;26586;-65
2022/08/05 12:39:38;;;;;;;2.25;1.87;;;30.60;52.50;;;;;;631086;225;26571;-67
2022/08/05 12:42:08;;;;;;;3.10;2.17;;;31.30;51.50;;;;;;624950;230;26555;-67
2022/08/05 12:44:35;;;;;;;5.15;2.40;;;31.20;50.50;;;;;;625096;226;27002;-67
2022/08/05 12:47:03;;;;;;;2.37;2.20;;;31.10;50.80;;;;;;627674;226;26570;-67
2022/08/05 12:49:38;;;;;;;2.50;2.28;;;31.10;50.80;;;;;;625405;226;26929;-67
2022/08/05 12:52:05;;;;;;;2.40;2.30;;;31.30;50.60;;;;;;631308;226;26831;-67
2022/08/05 12:54:32;;;;;;;3.72;2.50;;;31.50;50.30;;;;;;634893;226;26562;-67
2022/08/05 12:57:00;;;;;;;2.40;2.20;;;32.20;48.60;;;;;;635581;226;26557;-67